Time;durP1;ratioP1;P1;durP2;ratioP2;P2;SDS_P1;SDS_P2;PMS_P1;PMS_P2;Temp;Humidity;BMP_temperature;BMP_pressure;BME280_temperature;BME280_humidity;BME280_pressure;Samples;Min_cycle;Max_cycle;Signal;HPM_P1;HPM_P2
2023/07/26 00:02:02;;;;;;;5.15;3.33;;;;;;;14.32;97.53;101071.53;5069245;28;20052;-72
2023/07/26 00:04:27;;;;;;;5.43;3.63;;;;;;;14.31;97.27;101061.03;5069365;28;20039;-72
2023/07/26 00:06:52;;;;;;;7.10;4.18;;;;;;;14.29;97.62;101069.28;5069269;28;20039;-72
2023/07/26 00:09:18;;;;;;;6.32;3.88;;;;;;;14.24;97.81;101066.41;5068017;28;20116;-72
2023/07/26 00:11:43;;;;;;;6.47;3.72;;;;;;;14.24;97.94;101069.09;5069162;28;20383;-72
2023/07/26 00:14:09;;;;;;;5.78;3.75;;;;;;;14.23;98.65;101060.22;5067883;28;20024;-72
2023/07/26 00:16:34;;;;;;;4.97;3.70;;;;;;;14.23;97.81;101067.47;5069126;28;20454;-72
2023/07/26 00:19:00;;;;;;;5.40;3.63;;;;;;;14.21;97.75;101064.16;5069299;28;20032;-72
2023/07/26 00:21:27;;;;;;;6.38;3.60;;;;;;;14.12;98.06;101052.88;5069174;28;20032;-72
2023/07/26 00:23:52;;;;;;;8.55;3.65;;;;;;;14.15;98.21;101063.19;5068774;28;20100;-72
2023/07/26 00:26:17;;;;;;;5.13;3.75;;;;;;;14.15;98.07;101068.53;5069017;28;20029;-72
2023/07/26 00:28:43;;;;;;;5.40;3.70;;;;;;;14.11;97.97;101069.19;5069076;28;20108;-72
2023/07/26 00:31:08;;;;;;;6.15;3.88;;;;;;;14.11;98.34;101063.81;5068957;28;20029;-72
2023/07/26 00:33:34;;;;;;;5.70;3.83;;;;;;;14.11;98.44;101061.13;5067575;28;20024;-72
2023/07/26 00:35:59;;;;;;;6.03;3.53;;;;;;;14.07;98.35;101065.25;5068855;28;20051;-72
2023/07/26 00:38:24;;;;;;;7.57;3.92;;;;;;;14.02;98.78;101061.38;5068742;28;20956;-71
2023/07/26 00:40:50;;;;;;;4.90;4.05;;;;;;;13.99;98.60;101059.13;5069007;28;20114;-72
2023/07/26 00:43:15;;;;;;;8.52;4.18;;;;;;;13.99;100.00;101066.34;5068855;28;20032;-72
2023/07/26 00:45:42;;;;;;;6.53;3.78;;;;;;;13.95;100.00;101057.91;5067637;28;20119;-71
2023/07/26 00:48:09;;;;;;;8.55;3.60;;;;;;;13.93;100.00;101057.28;5067439;28;20017;-72
2023/07/26 00:50:36;;;;;;;7.60;4.05;;;;;;;13.89;100.00;101056.09;5068854;28;20467;-72
2023/07/26 00:53:02;;;;;;;13.23;5.60;;;;;;;13.85;100.00;101059.41;5069050;28;20372;-72
2023/07/26 00:55:27;;;;;;;6.85;3.90;;;;;;;13.81;100.00;101056.34;5068735;28;20035;-71
2023/07/26 00:57:55;;;;;;;6.80;3.80;;;;;;;13.77;100.00;101063.13;5068654;28;20028;-72
2023/07/26 01:00:20;;;;;;;8.48;4.35;;;;;;;13.70;100.00;101059.66;5068787;28;20048;-76
2023/07/26 01:02:46;;;;;;;7.60;3.85;;;;;;;13.57;100.00;101061.38;5067330;28;20087;-72
2023/07/26 01:05:11;;;;;;;7.40;3.88;;;;;;;13.48;100.00;101061.81;5068678;28;20082;-72
2023/07/26 01:07:42;;;;;;;7.03;3.90;;;;;;;13.43;100.00;101058.94;5068699;28;20103;-72
2023/07/26 01:10:24;;;;;;;10.30;4.87;;;;;;;13.36;100.00;101051.75;5068766;28;20484;-71
2023/07/26 01:13:06;;;;;;;8.07;4.50;;;;;;;13.31;100.00;101056.09;5068596;28;20306;-71
2023/07/26 01:15:37;;;;;;;7.55;4.40;;;;;;;13.22;100.00;101059.97;5072582;28;20111;-71
2023/07/26 01:18:14;;;;;;;6.82;4.68;;;;;;;13.14;100.00;101061.00;5071033;28;20025;-71
2023/07/26 01:20:40;;;;;;;6.00;3.88;;;;;;;12.99;100.00;101065.75;5072477;28;20501;-71
2023/07/26 01:23:06;;;;;;;6.20;4.22;;;;;;;13.00;100.00;101064.75;5072435;28;20048;-72
2023/07/26 01:25:31;;;;;;;6.30;4.32;;;;;;;12.99;100.00;101055.88;5072317;28;20025;-72
2023/07/26 01:27:57;;;;;;;8.90;4.72;;;;;;;12.98;100.00;101062.28;5072350;28;20051;-71
2023/07/26 01:30:23;;;;;;;7.47;4.80;;;;;;;12.94;100.00;101058.34;5072242;28;20079;-71
2023/07/26 01:32:52;;;;;;;6.45;4.07;;;;;;;12.90;100.00;101047.25;5072062;28;20480;-71
2023/07/26 01:35:21;;;;;;;7.78;3.95;;;;;;;12.97;100.00;101057.13;5072277;28;20056;-72
2023/07/26 01:37:46;;;;;;;6.30;4.50;;;;;;;12.99;100.00;101055.88;5071894;28;20071;-71
2023/07/26 01:40:13;;;;;;;9.45;4.72;;;;;;;13.01;100.00;101067.22;5072033;28;20040;-71
2023/07/26 01:42:41;;;;;;;6.38;4.07;;;;;;;13.03;100.00;101053.63;5071858;28;20033;-71
2023/07/26 01:45:09;;;;;;;8.32;4.82;;;;;;;13.09;100.00;101063.50;5072065;28;20061;-72
2023/07/26 01:47:34;;;;;;;7.22;4.38;;;;;;;13.13;100.00;101054.84;5071892;28;20361;-72
2023/07/26 01:50:00;;;;;;;7.35;4.45;;;;;;;13.19;100.00;101057.72;5070536;28;20035;-71
2023/07/26 01:52:26;;;;;;;8.98;4.78;;;;;;;13.23;100.00;101059.78;5070470;28;20044;-72
2023/07/26 01:54:51;;;;;;;7.15;4.60;;;;;;;13.20;100.00;101052.13;5071820;28;20038;-72
2023/07/26 01:57:16;;;;;;;6.88;4.63;;;;;;;13.26;100.00;101059.38;5071733;28;20754;-71
2023/07/26 01:59:42;;;;;;;8.40;4.72;;;;;;;13.26;100.00;101050.50;5071586;28;20185;-72
2023/07/26 02:02:07;;;;;;;7.28;4.30;;;;;;;13.27;100.00;101054.84;5071458;28;20139;-72
2023/07/26 02:04:32;;;;;;;8.73;5.15;;;;;;;13.25;100.00;101060.38;5071509;28;20376;-71
2023/07/26 02:06:58;;;;;;;7.60;4.80;;;;;;;13.26;100.00;101061.22;5071588;28;20131;-71
2023/07/26 02:09:23;;;;;;;8.82;4.93;;;;;;;13.19;100.00;101052.38;5071658;28;20056;-71
2023/07/26 02:11:49;;;;;;;7.88;4.93;;;;;;;13.30;100.00;101065.13;5071388;28;20028;-72
2023/07/26 02:14:16;;;;;;;8.98;4.72;;;;;;;13.29;100.00;101067.00;5071455;28;20035;-71
2023/07/26 02:16:41;;;;;;;8.95;5.03;;;;;;;13.25;100.00;101048.84;5071316;28;20035;-71
2023/07/26 02:19:07;;;;;;;8.65;4.97;;;;;;;13.28;100.00;101046.63;5071742;28;20028;-72
2023/07/26 02:21:33;;;;;;;9.85;5.75;;;;;;;13.28;100.00;101046.63;5071016;28;20056;-72
2023/07/26 02:23:58;;;;;;;8.00;4.88;;;;;;;13.26;100.00;101048.69;5071508;28;20035;-71
2023/07/26 02:26:24;;;;;;;7.95;6.00;;;;;;;13.21;100.00;101045.78;5070964;28;20123;-71
2023/07/26 02:28:49;;;;;;;12.18;5.85;;;;;;;13.14;100.00;101037.72;5069856;28;20535;-71
2023/07/26 02:31:14;;;;;;;11.45;6.65;;;;;;;13.20;100.00;101051.31;5071133;28;20089;-71
2023/07/26 02:33:40;;;;;;;10.13;5.45;;;;;;;13.17;100.00;101041.84;5071048;28;20057;-71
2023/07/26 02:36:05;;;;;;;7.88;5.30;;;;;;;13.14;100.00;101047.63;5070943;28;20029;-71
2023/07/26 02:38:30;;;;;;;8.30;5.60;;;;;;;13.05;100.00;101033.63;5070777;28;20036;-72
2023/07/26 02:40:56;;;;;;;8.25;5.20;;;;;;;13.10;100.00;101041.06;5070892;28;20028;-72
2023/07/26 02:43:21;;;;;;;8.57;5.10;;;;;;;13.07;100.00;101041.44;5070816;28;20108;-71
2023/07/26 02:45:47;;;;;;;7.70;4.68;;;;;;;13.00;100.00;101037.97;5070997;28;20025;-71
2023/07/26 02:48:12;;;;;;;9.73;5.68;;;;;;;13.02;100.00;101047.44;5070794;28;20086;-71
2023/07/26 02:50:38;;;;;;;9.05;5.97;;;;;;;12.85;100.00;101035.50;5070554;28;20032;-71
2023/07/26 02:53:03;;;;;;;11.70;5.88;;;;;;;12.82;100.00;101039.44;5070603;28;20037;-72
2023/07/26 02:55:28;;;;;;;6.50;4.60;;;;;;;12.76;100.00;101037.59;5069391;28;20033;-71
2023/07/26 02:57:54;;;;;;;9.20;5.10;;;;;;;12.69;100.00;101037.56;5070647;28;20480;-71
2023/07/26 03:00:19;;;;;;;10.40;5.53;;;;;;;12.62;100.00;101036.75;5069111;28;20036;-72
2023/07/26 03:02:45;;;;;;;10.70;6.57;;;;;;;12.58;100.00;101040.06;5070391;28;20546;-71
2023/07/26 03:05:10;;;;;;;8.82;5.00;;;;;;;12.55;100.00;101040.44;5070378;28;20467;-71
2023/07/26 03:07:35;;;;;;;7.95;5.53;;;;;;;12.59;100.00;101041.69;5070329;28;20366;-72
2023/07/26 03:10:01;;;;;;;11.05;6.18;;;;;;;12.56;100.00;101047.47;5070444;28;20521;-72
2023/07/26 03:12:26;;;;;;;10.38;4.80;;;;;;;12.59;100.00;101052.38;5070235;28;20028;-72
2023/07/26 03:14:51;;;;;;;11.35;5.90;;;;;;;12.57;100.00;101046.41;5068751;28;20438;-72
2023/07/26 03:17:17;;;;;;;12.43;6.38;;;;;;;12.59;100.00;101049.72;5069988;28;20037;-72
2023/07/26 03:19:42;;;;;;;9.05;5.07;;;;;;;12.66;100.00;101053.22;5068756;28;20491;-72
2023/07/26 03:22:08;;;;;;;8.15;4.82;;;;;;;12.60;100.00;101054.88;5069974;28;20040;-71
2023/07/26 03:24:33;;;;;;;9.98;5.55;;;;;;;12.63;100.00;101064.34;5069908;28;20391;-72
2023/07/26 03:26:58;;;;;;;7.03;5.30;;;;;;;12.64;100.00;101068.66;5069888;28;20044;-72
2023/07/26 03:29:24;;;;;;;9.00;5.32;;;;;;;12.62;100.00;101065.34;5069951;28;20028;-71
2023/07/26 03:31:49;;;;;;;8.90;4.90;;;;;;;12.65;100.00;101064.94;5069766;28;20038;-71
2023/07/26 03:34:15;;;;;;;8.90;4.47;;;;;;;12.67;100.00;101060.22;5068424;28;20024;-71
2023/07/26 03:36:40;;;;;;;7.95;4.60;;;;;;;12.66;100.00;101061.25;5069231;28;20031;-72
2023/07/26 03:39:06;;;;;;;9.95;5.28;;;;;;;12.68;100.00;101061.84;5069621;28;20033;-71
2023/07/26 03:41:32;;;;;;;8.25;4.65;;;;;;;12.68;100.00;101060.03;5069745;28;20383;-71
2023/07/26 03:43:57;;;;;;;9.77;4.43;;;;;;;12.65;100.00;101049.72;5069535;28;20115;-72
2023/07/26 03:46:22;;;;;;;8.15;5.07;;;;;;;12.68;100.00;101056.50;5069383;28;20036;-71
2023/07/26 03:48:48;;;;;;;8.82;4.43;;;;;;;12.66;100.00;101055.91;5069939;28;20025;-72
2023/07/26 03:51:13;;;;;;;11.00;5.30;;;;;;;12.64;100.00;101057.97;5069521;28;20029;-72
2023/07/26 03:53:38;;;;;;;11.75;5.25;;;;;;;12.62;100.00;101060.81;5069285;28;20123;-72
2023/07/26 03:56:04;;;;;;;9.43;5.20;;;;;;;12.61;100.00;101056.50;5068573;28;20128;-72
2023/07/26 03:58:29;;;;;;;8.90;5.22;;;;;;;12.61;100.00;101055.69;5068297;28;20033;-71
2023/07/26 04:00:54;;;;;;;7.00;4.30;;;;;;;12.61;100.00;101061.03;5068284;28;20025;-72
2023/07/26 04:03:20;;;;;;;10.48;4.88;;;;;;;12.57;100.00;101052.59;5068354;28;20159;-72
2023/07/26 04:05:45;;;;;;;7.47;4.90;;;;;;;12.61;100.00;101055.69;5067331;28;20036;-71
2023/07/26 04:08:10;;;;;;;14.02;5.13;;;;;;;12.59;100.00;101060.41;5069097;28;20107;-72
2023/07/26 04:10:37;;;;;;;7.70;4.38;;;;;;;12.58;100.00;101062.28;5069345;28;20598;-71
2023/07/26 04:13:02;;;;;;;8.90;4.78;;;;;;;12.57;100.00;101065.97;5068964;28;20043;-72
2023/07/26 04:15:29;;;;;;;10.48;4.43;;;;;;;12.56;100.00;101066.19;5067996;28;20464;-72
2023/07/26 04:17:54;;;;;;;8.52;4.22;;;;;;;12.54;100.00;101066.38;5068872;28;20036;-72
2023/07/26 04:20:19;;;;;;;10.52;5.05;;;;;;;12.57;100.00;101063.28;5068980;28;20024;-72
2023/07/26 04:22:45;;;;;;;8.65;4.55;;;;;;;12.56;100.00;101066.19;5068731;28;20032;-72
2023/07/26 04:25:10;;;;;;;6.72;4.00;;;;;;;12.47;100.00;101055.69;5069086;28;20502;-72
2023/07/26 04:27:36;;;;;;;7.32;4.45;;;;;;;12.59;100.00;101063.09;5068914;28;20443;-71
2023/07/26 04:30:02;;;;;;;9.07;4.65;;;;;;;12.59;100.00;101061.25;5067653;28;20032;-71
2023/07/26 04:32:28;;;;;;;9.00;4.60;;;;;;;12.60;100.00;101059.38;5067581;28;20027;-72
2023/07/26 04:34:53;;;;;;;6.55;3.95;;;;;;;12.58;100.00;101064.13;5068669;28;20395;-72
2023/07/26 04:37:18;;;;;;;9.25;5.18;;;;;;;12.57;100.00;101060.63;5068719;28;20032;-72
2023/07/26 04:39:46;;;;;;;8.50;4.63;;;;;;;12.56;100.00;101058.16;5068752;28;20108;-72
2023/07/26 04:42:11;;;;;;;10.30;4.82;;;;;;;12.62;100.00;101070.72;5068872;28;20033;-72
2023/07/26 04:44:37;;;;;;;7.13;4.35;;;;;;;12.64;100.00;101068.66;5067339;28;20541;-72
2023/07/26 04:47:03;;;;;;;9.43;4.85;;;;;;;12.65;100.00;101065.78;5068796;28;20032;-72
2023/07/26 04:49:29;;;;;;;8.18;5.13;;;;;;;12.73;100.00;101072.75;5069735;28;20390;-72
2023/07/26 04:51:54;;;;;;;7.68;5.35;;;;;;;12.76;100.00;101067.03;5072865;28;20463;-72
2023/07/26 04:54:19;;;;;;;8.98;5.63;;;;;;;12.78;100.00;101072.97;5072934;28;20028;-71
2023/07/26 04:56:45;;;;;;;7.63;5.22;;;;;;;12.81;100.00;101075.25;5072863;28;20115;-72
2023/07/26 04:59:10;;;;;;;10.38;5.75;;;;;;;12.85;100.00;101073.00;5072644;28;20039;-72
2023/07/26 05:01:35;;;;;;;7.88;4.85;;;;;;;12.84;100.00;101071.34;5072638;28;20142;-72
2023/07/26 05:04:01;;;;;;;10.30;5.32;;;;;;;12.88;100.00;101069.88;5073088;28;20388;-72
2023/07/26 05:06:26;;;;;;;8.00;5.28;;;;;;;12.92;100.00;101073.81;5072455;28;20036;-72
2023/07/26 05:08:52;;;;;;;8.18;5.22;;;;;;;12.93;100.00;101070.91;5072455;28;20032;-71
2023/07/26 05:11:20;;;;;;;10.35;5.28;;;;;;;12.99;100.00;101069.25;5071050;28;20468;-72
2023/07/26 05:13:46;;;;;;;8.35;5.45;;;;;;;12.99;100.00;101071.94;5072432;28;20024;-71
2023/07/26 05:16:11;;;;;;;10.60;5.50;;;;;;;13.01;100.00;101072.56;5072407;28;20475;-72
2023/07/26 05:18:37;;;;;;;8.45;6.35;;;;;;;12.98;100.00;101070.31;5070926;28;20040;-71
2023/07/26 05:21:02;;;;;;;8.73;5.25;;;;;;;12.97;100.00;101071.34;5072233;28;20486;-72
2023/07/26 05:23:28;;;;;;;8.35;4.70;;;;;;;12.97;100.00;101073.19;5072446;28;20036;-72
2023/07/26 05:25:53;;;;;;;13.13;7.03;;;;;;;13.03;100.00;101067.00;5070903;28;20071;-72
2023/07/26 05:28:18;;;;;;;7.90;4.97;;;;;;;13.11;100.00;101056.91;5072192;28;20361;-72
2023/07/26 05:30:44;;;;;;;7.55;4.85;;;;;;;13.23;100.00;101065.13;5070820;28;20069;-71
2023/07/26 05:33:09;;;;;;;10.13;5.63;;;;;;;13.31;100.00;101066.81;5071932;28;20040;-71
2023/07/26 05:35:35;;;;;;;9.80;5.55;;;;;;;13.41;100.00;101067.16;5070942;28;20029;-71
2023/07/26 05:38:01;;;;;;;10.60;5.30;;;;;;;13.50;100.00;101078.50;5071784;28;20067;-72
2023/07/26 05:40:26;;;;;;;7.82;4.38;;;;;;;13.63;100.00;101073.09;5070504;28;20024;-72
2023/07/26 05:42:51;;;;;;;8.88;5.28;;;;;;;13.69;100.00;101066.06;5071641;28;20036;-72
2023/07/26 05:45:17;;;;;;;9.32;5.57;;;;;;;13.75;100.00;101065.19;5071859;28;20034;-71
2023/07/26 05:47:43;;;;;;;11.20;6.50;;;;;;;13.80;100.00;101065.41;5071624;28;20430;-72
2023/07/26 05:50:10;;;;;;;15.27;5.53;;;;;;;13.87;100.00;101060.84;5071833;28;20422;-71
2023/07/26 05:52:37;;;;;;;10.48;5.53;;;;;;;13.95;100.00;101063.25;5071347;28;20032;-72
2023/07/26 05:55:02;;;;;;;7.97;4.88;;;;;;;14.02;100.00;101069.44;5071600;28;20364;-72
2023/07/26 05:57:28;;;;;;;7.43;4.68;;;;;;;14.11;100.00;101074.53;5072030;28;20074;-72
2023/07/26 05:59:53;;;;;;;11.63;5.55;;;;;;;14.23;100.00;101075.50;5071284;28;20479;-72
2023/07/26 06:02:18;;;;;;;11.85;5.95;;;;;;;14.37;100.00;101074.38;5071281;28;20153;-72
2023/07/26 06:04:48;;;;;;;11.27;6.00;;;;;;;14.51;100.00;101077.78;5071339;28;20101;-72
2023/07/26 06:07:15;;;;;;;10.77;5.95;;;;;;;14.59;100.00;101082.94;5071406;28;20074;-71
2023/07/26 06:09:40;;;;;;;11.25;6.30;;;;;;;14.58;100.00;101075.91;5071422;28;20064;-72
2023/07/26 06:12:06;;;;;;;12.52;5.88;;;;;;;14.71;100.00;101093.81;5071798;28;20047;-71
2023/07/26 06:14:31;;;;;;;14.95;6.53;;;;;;;14.75;100.00;101096.84;5071381;28;20052;-72
2023/07/26 06:16:58;;;;;;;11.15;6.22;;;;;;;14.77;100.00;101097.47;5070926;28;20482;-72
2023/07/26 06:19:24;;;;;;;11.20;7.30;;;;;;;14.84;100.00;101103.63;5071077;28;20435;-72
2023/07/26 06:21:50;;;;;;;13.90;6.88;;;;;;;14.81;100.00;101106.75;5070975;28;20067;-72
2023/07/26 06:24:15;;;;;;;13.15;6.57;;;;;;;14.82;100.00;101106.50;5071117;28;20395;-72
2023/07/26 06:26:40;;;;;;;15.60;8.80;;;;;;;14.91;100.00;101104.41;5071115;28;20028;-72
2023/07/26 06:29:06;;;;;;;17.60;7.78;;;;;;;14.98;100.00;101107.00;5071186;28;20025;-72
2023/07/26 06:31:31;;;;;;;13.30;6.57;;;;;;;14.99;100.00;101108.69;5070959;28;20024;-72
2023/07/26 06:33:57;;;;;;;11.52;6.40;;;;;;;15.01;100.00;101120.00;5070943;28;20109;-72
2023/07/26 06:36:22;;;;;;;15.13;6.57;;;;;;;14.97;100.00;101133.06;5070811;28;20139;-72
2023/07/26 06:38:47;;;;;;;13.32;6.90;;;;;;;14.94;100.00;101130.00;5070560;28;20445;-72
2023/07/26 06:41:13;;;;;;;14.43;7.43;;;;;;;14.90;100.00;101132.28;5070934;28;20035;-71
2023/07/26 06:43:38;;;;;;;15.60;7.70;;;;;;;14.87;100.00;101138.91;5070800;28;20055;-72
2023/07/26 06:46:03;;;;;;;18.35;7.85;;;;;;;14.83;100.00;101136.91;5069198;28;20111;-71
2023/07/26 06:48:29;;;;;;;15.30;7.20;;;;;;;14.81;100.00;101139.78;5070818;28;20510;-72
2023/07/26 06:50:54;;;;;;;16.52;7.60;;;;;;;14.78;100.00;101145.59;5070709;28;20032;-72
2023/07/26 06:53:20;;;;;;;15.95;7.82;;;;;;;14.77;100.00;101143.94;5070709;28;20032;-72
2023/07/26 06:55:45;;;;;;;16.58;8.90;;;;;;;14.73;100.00;101142.75;5070838;28;20070;-72
2023/07/26 06:58:11;;;;;;;12.52;7.55;;;;;;;14.67;100.00;101139.06;5070600;28;20028;-71
2023/07/26 07:00:36;;;;;;;14.20;7.38;;;;;;;14.64;100.00;101144.84;5070631;28;20518;-72
2023/07/26 07:03:03;;;;;;;16.08;7.53;;;;;;;14.66;100.00;101144.63;5070592;28;20152;-71
2023/07/26 07:05:30;;;;;;;15.05;8.35;;;;;;;14.62;100.00;101156.84;5070705;28;20066;-73
2023/07/26 07:07:56;;;;;;;16.13;9.00;;;;;;;14.50;100.00;101148.63;5070490;28;20028;-71
2023/07/26 07:10:22;;;;;;;15.60;8.10;;;;;;;14.46;100.00;101158.13;5069805;28;20104;-72
2023/07/26 07:12:48;;;;;;;15.35;7.55;;;;;;;14.44;100.00;101157.53;5069894;28;20037;-68
2023/07/26 07:15:13;;;;;;;17.95;9.00;;;;;;;14.42;100.00;101164.97;5070293;28;20055;-71
2023/07/26 07:17:41;;;;;;;18.05;8.68;;;;;;;14.35;100.00;101158.81;5070117;28;20031;-71
2023/07/26 07:20:08;;;;;;;16.35;8.88;;;;;;;14.40;100.00;101167.03;5069177;28;20039;-67
2023/07/26 07:22:34;;;;;;;16.23;9.13;;;;;;;14.36;100.00;101181.94;5069904;28;20375;-67
2023/07/26 07:25:00;;;;;;;16.45;9.15;;;;;;;14.31;100.00;101181.75;5069720;28;20040;-68
2023/07/26 07:27:25;;;;;;;16.98;8.82;;;;;;;14.30;100.00;101185.47;5069657;28;20032;-67
2023/07/26 07:29:51;;;;;;;16.30;10.25;;;;;;;14.26;100.00;101198.50;5069832;28;20088;-67
2023/07/26 07:32:17;;;;;;;16.75;8.57;;;;;;;14.21;100.00;101192.94;5070024;28;20029;-67
2023/07/26 07:34:42;;;;;;;16.50;8.90;;;;;;;14.16;100.00;101180.16;5070011;28;20051;-67
2023/07/26 07:37:08;;;;;;;19.10;8.95;;;;;;;14.14;100.00;101173.34;5070052;28;20031;-67
2023/07/26 07:39:33;;;;;;;17.25;9.85;;;;;;;14.15;100.00;101175.03;5070009;28;20039;-67
2023/07/26 07:41:59;;;;;;;17.25;9.35;;;;;;;14.14;100.00;101165.31;5070075;28;20060;-67
2023/07/26 07:44:27;;;;;;;14.98;8.73;;;;;;;14.17;100.00;101175.59;5069424;28;20024;-69
2023/07/26 07:46:53;;;;;;;13.38;9.13;;;;;;;14.20;100.00;101170.66;5069264;28;20097;-69
2023/07/26 07:49:18;;;;;;;17.92;8.77;;;;;;;14.28;100.00;101183.00;5069587;28;20713;-69
2023/07/26 07:51:44;;;;;;;15.63;8.93;;;;;;;14.37;100.00;101180.91;5069614;28;20131;-69
2023/07/26 07:54:09;;;;;;;16.55;8.50;;;;;;;14.47;100.00;101187.44;5069767;28;20043;-69
2023/07/26 07:56:34;;;;;;;15.63;8.13;;;;;;;14.60;100.00;101177.72;5069526;28;20032;-69
2023/07/26 07:59:00;;;;;;;18.42;8.68;;;;;;;14.73;100.00;101183.00;5069487;28;20132;-68
2023/07/26 08:01:27;;;;;;;15.70;8.80;;;;;;;14.85;100.00;101178.56;5069764;28;20086;-69
2023/07/26 08:03:52;;;;;;;18.27;9.85;;;;;;;15.01;100.00;101182.63;5069141;28;20102;-68
2023/07/26 08:06:17;;;;;;;16.92;8.82;;;;;;;15.09;100.00;101181.50;5069415;28;20497;-69
2023/07/26 08:08:43;;;;;;;17.27;10.10;;;;;;;15.30;100.00;101185.69;5069510;28;20021;-69
2023/07/26 08:11:08;;;;;;;16.65;8.55;;;;;;;15.50;100.00;101170.19;5069656;28;20209;-71
2023/07/26 08:13:34;;;;;;;15.93;8.90;;;;;;;15.70;100.00;101175.44;5069255;28;20035;-68
2023/07/26 08:15:59;;;;;;;17.38;9.93;;;;;;;15.82;100.00;101180.06;5069289;28;20025;-69
2023/07/26 08:18:25;;;;;;;15.73;10.15;;;;;;;16.16;100.00;101181.31;5069282;28;20406;-68
2023/07/26 08:20:50;;;;;;;20.88;10.20;;;;;;;17.86;100.00;101185.38;5069205;28;20548;-70
2023/07/26 08:23:16;;;;;;;16.38;10.18;;;;;;;20.08;97.36;101192.47;5050829;28;20066;-68
2023/07/26 08:25:41;;;;;;;21.75;10.70;;;;;;;21.77;87.02;101191.34;5069057;28;20036;-69
2023/07/26 08:28:07;;;;;;;17.08;10.20;;;;;;;23.19;77.12;101181.97;5067798;28;20115;-70
2023/07/26 08:30:32;;;;;;;15.65;9.55;;;;;;;24.54;72.02;101194.09;5067965;28;20028;-71
2023/07/26 08:32:57;;;;;;;12.95;7.85;;;;;;;25.52;66.98;101189.53;5069294;28;20077;-69
2023/07/26 08:35:24;;;;;;;12.98;6.82;;;;;;;26.42;61.04;101190.66;5068998;28;20028;-70
2023/07/26 08:37:49;;;;;;;15.55;8.18;;;;;;;27.09;60.64;101187.72;5068686;28;20162;-72
2023/07/26 08:40:15;;;;;;;10.90;7.00;;;;;;;26.72;56.96;101169.44;5067802;28;20028;-71
2023/07/26 08:42:41;;;;;;;13.23;7.93;;;;;;;26.65;57.42;101187.06;5069488;28;20548;-68
2023/07/26 08:45:07;;;;;;;11.10;6.22;;;;;;;26.87;56.10;101185.63;5068917;28;20936;-67
2023/07/26 08:47:35;;;;;;;8.63;5.88;;;;;;;27.05;55.23;101176.56;5069158;28;20024;-71
2023/07/26 08:50:01;;;;;;;11.32;5.82;;;;;;;27.06;53.30;101178.19;5068557;28;20506;-70
2023/07/26 08:52:27;;;;;;;12.00;5.85;;;;;;;26.89;53.71;101177.94;5068249;28;20036;-70
2023/07/26 08:54:53;;;;;;;13.73;6.50;;;;;;;27.21;53.15;101179.06;5068940;28;20443;-71
2023/07/26 08:57:19;;;;;;;9.45;5.90;;;;;;;27.34;53.06;101178.28;5068734;28;20056;-70
2023/07/26 08:59:44;;;;;;;11.52;6.72;;;;;;;27.22;53.47;101176.03;5068983;28;20430;-67
2023/07/26 09:02:13;;;;;;;11.15;6.40;;;;;;;26.27;56.26;101177.19;5068495;28;20066;-68
2023/07/26 09:04:39;;;;;;;11.95;6.18;;;;;;;24.79;59.18;101174.03;5068915;28;20064;-66
2023/07/26 09:07:05;;;;;;;11.00;6.55;;;;;;;23.43;65.35;101170.50;5068709;28;20036;-69
2023/07/26 09:09:32;;;;;;;12.15;6.40;;;;;;;22.38;71.01;101171.78;5068885;28;21027;-68
2023/07/26 09:11:58;;;;;;;13.90;6.75;;;;;;;21.57;74.99;101167.59;5068446;28;20035;-68
2023/07/26 09:14:28;;;;;;;9.77;5.55;;;;;;;21.05;75.09;101164.78;5067597;28;20028;-67
2023/07/26 09:16:58;;;;;;;10.45;6.32;;;;;;;20.60;77.48;101160.56;5068686;28;20040;-72
2023/07/26 09:19:35;;;;;;;8.07;5.28;;;;;;;20.51;81.92;101161.00;5068686;28;20051;-68
2023/07/26 09:22:03;;;;;;;10.38;6.93;;;;;;;20.17;80.37;101152.22;5066679;28;20028;-68
2023/07/26 09:24:34;;;;;;;9.07;5.93;;;;;;;20.05;79.77;101152.34;5065963;28;20044;-71
2023/07/26 09:27:19;;;;;;;12.40;6.97;;;;;;;20.28;83.14;101155.88;5067105;28;20066;-71
2023/07/26 09:29:56;;;;;;;11.93;5.65;;;;;;;20.12;81.04;101147.56;5067600;28;20739;-62
2023/07/26 09:32:29;;;;;;;12.05;7.97;;;;;;;19.81;81.65;101146.38;5067237;28;20128;-67
2023/07/26 09:34:59;;;;;;;11.07;6.25;;;;;;;19.44;83.24;101141.53;5068802;28;20036;-68
2023/07/26 09:37:24;;;;;;;11.50;5.68;;;;;;;19.15;78.87;101150.78;5070770;28;20471;-68
2023/07/26 09:39:50;;;;;;;11.18;4.00;;;;;;;19.00;75.50;101140.56;5071308;28;20090;-70
2023/07/26 09:42:15;;;;;;;10.68;5.78;;;;;;;19.18;76.15;101147.63;5071791;28;20472;-72
2023/07/26 09:44:45;;;;;;;7.95;5.00;;;;;;;19.43;78.67;101141.75;5071643;28;20503;-71
2023/07/26 09:47:10;;;;;;;8.23;5.00;;;;;;;19.53;77.61;101143.78;5071858;28;20107;-70
2023/07/26 09:49:49;;;;;;;10.25;5.05;;;;;;;19.27;76.75;101146.13;5071931;28;20103;-67
2023/07/26 09:52:19;;;;;;;10.10;4.43;;;;;;;19.02;72.72;101149.22;5071458;28;20087;-69
2023/07/26 09:54:46;;;;;;;15.15;6.05;;;;;;;18.85;77.53;101149.25;5071816;28;20480;-69
2023/07/26 09:57:13;;;;;;;6.72;4.55;;;;;;;18.74;79.50;101156.31;5071490;28;20098;-70
2023/07/26 09:59:40;;;;;;;12.00;5.07;;;;;;;18.48;81.46;101162.31;5071592;28;20028;-69
2023/07/26 10:02:11;;;;;;;9.25;5.20;;;;;;;18.21;83.93;101162.91;5071519;28;20075;-69
2023/07/26 10:04:42;;;;;;;11.77;5.18;;;;;;;17.94;87.84;101166.13;5070448;28;20025;-69
2023/07/26 10:07:11;;;;;;;10.02;5.18;;;;;;;17.68;91.10;101161.19;5071501;28;20028;-69
2023/07/26 10:09:43;;;;;;;7.55;3.72;;;;;;;17.37;83.58;101165.09;5071565;28;20032;-69
2023/07/26 10:12:09;;;;;;;8.13;4.38;;;;;;;17.19;89.06;101160.63;5071632;28;20058;-69
2023/07/26 10:14:35;;;;;;;11.90;6.40;;;;;;;17.06;94.77;101151.72;5071608;28;20637;-69
2023/07/26 10:17:03;;;;;;;13.93;5.85;;;;;;;17.14;98.43;101147.84;5071428;28;20025;-69
2023/07/26 10:19:30;;;;;;;9.73;5.72;;;;;;;17.25;98.90;101151.59;5071258;28;20560;-69
2023/07/26 10:21:57;;;;;;;10.50;5.70;;;;;;;17.25;97.98;101144.34;5071390;28;20028;-69
2023/07/26 10:24:23;;;;;;;12.02;6.10;;;;;;;17.58;100.00;101148.34;5071397;28;20036;-69
2023/07/26 10:26:50;;;;;;;8.98;5.25;;;;;;;18.08;99.94;101146.97;5069804;28;20074;-69
2023/07/26 10:29:17;;;;;;;10.43;5.43;;;;;;;18.31;93.75;101151.47;5071368;28;20032;-69
2023/07/26 10:31:44;;;;;;;10.57;5.32;;;;;;;18.25;94.29;101161.34;5071357;28;20028;-69
2023/07/26 10:34:18;;;;;;;11.68;5.18;;;;;;;18.03;93.71;101141.47;5071205;28;20033;-69
2023/07/26 10:36:43;;;;;;;14.38;5.45;;;;;;;17.96;95.21;101147.81;5070465;28;20029;-69
2023/07/26 10:39:09;;;;;;;7.60;3.92;;;;;;;17.96;92.84;101155.91;5070230;28;20398;-69
2023/07/26 10:41:35;;;;;;;7.55;3.65;;;;;;;17.62;87.84;101154.06;5071105;28;20065;-70
2023/07/26 10:44:08;;;;;;;8.65;3.85;;;;;;;17.20;92.13;101149.59;5070779;28;21033;-70
2023/07/26 10:46:54;;;;;;;6.43;3.40;;;;;;;16.88;97.03;101159.06;5069360;28;20450;-70
2023/07/26 10:49:21;;;;;;;6.57;3.33;;;;;;;16.65;98.55;101156.03;5070823;28;20039;-70
2023/07/26 10:51:52;;;;;;;5.05;3.42;;;;;;;16.60;100.00;101155.06;5071002;28;20514;-70
2023/07/26 10:54:42;;;;;;;7.35;3.88;;;;;;;16.71;100.00;101156.16;5071336;28;20036;-70
2023/07/26 10:57:26;;;;;;;9.40;4.32;;;;;;;16.80;98.60;101152.94;5070545;28;20064;-70
2023/07/26 10:59:59;;;;;;;5.68;4.05;;;;;;;17.01;100.00;101156.16;5070749;28;20032;-69
2023/07/26 11:02:38;;;;;;;7.93;3.33;;;;;;;17.29;97.44;101150.91;5070066;28;20392;-70
2023/07/26 11:05:08;;;;;;;6.38;3.67;;;;;;;17.51;93.93;101147.63;5069904;28;20021;-70
2023/07/26 11:07:58;;;;;;;6.33;3.47;;;;;;;17.81;96.24;101149.38;5069962;28;20029;-70
2023/07/26 11:10:25;;;;;;;8.93;3.60;;;;;;;18.04;97.40;101143.09;5070382;28;20128;-70
2023/07/26 11:13:13;;;;;;;8.23;4.50;;;;;;;18.25;94.68;101139.75;5070009;28;20025;-70
2023/07/26 11:15:48;;;;;;;9.60;4.38;;;;;;;18.44;97.11;101144.94;5070027;28;20107;-70